Details From MPTO - Tocumen Intl
To MNMG - Managua Intl
Flight Number -
Tags decoded
Created
Modified
Stats Distance 441 nm / 816 km
Max Altitude 0 ft / 0 m
Waypoints 2
Social Downloads 0
Likes 0
Share VATSIM

Download

Looking for another format? Having issues loading an existing format? Contact us
Advertisement - Login to hide

Notes

Requested: MPTO MNMG

Route

MPTO MNMG

ID Type Via Altitude Latitude Longitude Leg Dist Tot Dist Heading (true) Name
O MPTO APT - 0 ft / 0 m 9.07136˚ -79.38346˚ - 0 nm - Tocumen Intl
O MNMG APT - 0 ft / 0 m 12.14149˚ -86.16818˚ 440 nm 440 nm 295° / 294° Managua Intl

Altitude Profile

Advertisement - Login to hide

Weather


0- 5 10 15 20 25 30 35+ Temperature / ° C

Clouds and Precipitation
Forecast for 2017-12-13 00:00 UTC. Updated an hour ago

Ground ~20,000 ft ~40,000 ft Winds

MPTO

Details ICAO MPTO (PTY)
Name Tocumen Intl
Region Panama
Timezone America/Panama (UTC-5.0)
Stats Elevation 135 ft / 41 m (AMSL)
Location 9.071364° -79.383458°
Runways 2
Magnetic Variation 4.530° W

METAR

MPTO 122200Z 29011KT 9999 SCT018CB SCT080 27/22 Q1011 NOSIG

Decode

TAF

TAF MPTO 121700Z 1218/1324 30018KT 9999 SCT020 PROB30 TEMPO 1219/1223 8000 RA SCT016 SCT100 BECMG 1223/1303 29008T 9999 SCT020

Decode

Departure Runways

ID Width Length Bearing (true) Bearing (mag) Surface Threshold Offset Overrun Length
03L 200 ft / 61 m 8,798 ft / 2,682 m 30.67° 35.20° Asphalt 0 ft / 0 m 0 ft / 0 m
03R 148 ft / 45 m 10,008 ft / 3,051 m 29.33° 33.86° Concrete 0 ft / 0 m 198 ft / 60 m
21L 148 ft / 45 m 10,008 ft / 3,051 m 209.33° 213.86° Concrete 0 ft / 0 m 198 ft / 60 m
21R 200 ft / 61 m 8,798 ft / 2,682 m 210.67° 215.20° Asphalt 0 ft / 0 m 0 ft / 0 m

MNMG

Details ICAO MNMG (MGA)
Name Managua Intl
Region Nicaragua
Timezone America/Managua (UTC-6.0)
Stats Elevation 194 ft / 59 m (AMSL)
Location 12.141493° -86.168178°
Runways 1
Magnetic Variation 0.945° W

METAR

MNMG 122200Z 12016KT 9999 SCT024 SCT070 29/19 Q1011 A2987 NOSIG

Decode

TAF

Not found

Destination Runways

ID Width Length Bearing (true) Bearing (mag) Surface Threshold Offset Overrun Length
09 148 ft / 45 m 8,008 ft / 2,441 m 96.54° 97.48° Asphalt 0 ft / 0 m 100 ft / 30 m
27 148 ft / 45 m 8,008 ft / 2,441 m 276.55° 277.49° Asphalt 0 ft / 0 m 100 ft / 30 m

Approach Navaids

Runway Type Ident Frequency Range Bearing (true) Bearing (mag) Slope Elevation
09 Localiser IMGA 109.10 MHz 18 nm / 33 km 96.37° 97.32° - 194 ft / 59 m (AMSL)
09 Glidescope IMGA 109.10 MHz 10 nm / 19 km 96.55° 97.49° 3.10° 194 ft / 59 m (AMSL)
09 DME IMGA 109.10 MHz 18 nm / 33 km - - - 194 ft / 59 m (AMSL)

Popular Alternatives